createdAt,value
2023-01-19T00:01:44.805Z,98079.81
2023-01-19T00:04:13.394Z,98119.31
2023-01-19T00:06:41.468Z,98083.31
2023-01-19T00:09:10.138Z,98125.34
2023-01-19T00:11:38.531Z,98085.06
2023-01-19T00:14:06.618Z,98111.47
2023-01-19T00:16:34.802Z,98122.94
2023-01-19T00:19:02.909Z,98085.50
2023-01-19T00:21:31.234Z,98123.19
2023-01-19T00:23:59.628Z,98113.19
2023-01-19T00:26:27.822Z,98058.81
2023-01-19T00:28:56.598Z,98098.63
2023-01-19T00:31:24.920Z,98098.16
2023-01-19T00:33:53.200Z,98086.13
2023-01-19T00:36:21.326Z,98049.84
2023-01-19T00:38:49.510Z,98090.03
2023-01-19T00:41:17.886Z,98090.66
2023-01-19T00:43:46.006Z,98092.47
2023-01-19T00:46:14.170Z,98053.69
2023-01-19T00:48:42.293Z,98114.97
2023-01-19T00:51:10.652Z,98138.53
2023-01-19T00:53:38.709Z,98147.53
2023-01-19T00:56:07.415Z,98137.28
2023-01-19T00:58:35.427Z,98136.31
2023-01-19T01:01:05.030Z,98138.28
2023-01-19T01:03:33.614Z,98146.97
2023-01-19T01:06:08.463Z,98138.56
2023-01-19T01:08:36.795Z,98115.44
2023-01-19T01:11:05.087Z,98111.59
2023-01-19T01:13:33.548Z,98167.31
2023-01-19T01:16:01.920Z,98176.38
2023-01-19T01:18:29.899Z,98130.09
2023-01-19T01:21:06.641Z,98122.06
2023-01-19T01:23:36.097Z,98170.66
2023-01-19T01:26:04.221Z,98127.75
2023-01-19T01:28:32.583Z,98156.88
2023-01-19T01:31:00.678Z,98142.88
2023-01-19T01:33:41.256Z,98159.41
2023-01-19T01:36:12.076Z,98140.41
2023-01-19T01:38:41.664Z,98108.50
2023-01-19T01:41:10.292Z,98158.47
2023-01-19T01:43:55.186Z,98162.72
2023-01-19T01:46:23.367Z,98148.38
2023-01-19T01:49:10.818Z,98154.88
2023-01-19T01:51:48.462Z,98151.66
2023-01-19T01:54:30.805Z,98147.53
2023-01-19T01:57:05.729Z,98104.25
2023-01-19T01:59:40.534Z,98137.13
2023-01-19T02:02:44.849Z,98140.19
2023-01-19T02:05:38.325Z,98135.94
2023-01-19T02:08:35.617Z,98131.28
2023-01-19T02:11:23.696Z,98138.78
2023-01-19T02:13:52.016Z,98150.75
2023-01-19T02:16:20.199Z,98156.84
2023-01-19T02:18:48.617Z,98154.88
2023-01-19T02:21:56.702Z,98169.75
2023-01-19T02:24:25.630Z,98165.66
2023-01-19T02:26:54.007Z,98125.94
2023-01-19T02:29:25.334Z,98152.84
2023-01-19T02:31:54.747Z,98175.97
2023-01-19T02:34:23.316Z,98160.81
2023-01-19T02:37:00.372Z,98127.53
2023-01-19T02:39:50.829Z,98178.69
2023-01-19T02:42:30.496Z,98197.75
2023-01-19T02:44:58.933Z,98191.44
2023-01-19T02:47:27.076Z,98202.25
2023-01-19T02:49:59.996Z,98163.13
2023-01-19T02:52:28.564Z,98164.91
2023-01-19T02:55:19.859Z,98216.69
2023-01-19T02:58:15.703Z,98202.47
2023-01-19T03:01:32.847Z,98192.72
2023-01-19T03:04:13.927Z,98167.13
2023-01-19T03:07:08.783Z,98196.53
2023-01-19T03:10:22.711Z,98198.84
2023-01-19T03:12:59.831Z,98214.19
2023-01-19T03:15:45.441Z,98213.34
2023-01-19T03:18:18.636Z,98137.09
2023-01-19T03:20:49.885Z,98223.56
2023-01-19T03:23:19.856Z,98227.88
2023-01-19T03:25:50.908Z,98175.59
2023-01-19T03:28:21.715Z,98222.38
2023-01-19T03:30:59.760Z,98187.25
2023-01-19T03:33:37.879Z,98150.75
2023-01-19T03:36:31.391Z,98173.81
2023-01-19T03:39:02.626Z,98216.81
2023-01-19T03:41:34.618Z,98205.28
2023-01-19T03:44:05.784Z,98221.09
2023-01-19T03:46:34.792Z,98178.81
2023-01-19T03:49:03.452Z,98216.06
2023-01-19T03:51:35.392Z,98186.19
2023-01-19T03:54:05.761Z,98212.38
2023-01-19T03:56:34.103Z,98226.19
2023-01-19T03:59:02.505Z,98218.78
2023-01-19T04:01:30.897Z,98229.75
2023-01-19T04:03:59.115Z,98227.63
2023-01-19T04:06:28.102Z,98184.50
2023-01-19T04:08:56.960Z,98228.56
2023-01-19T04:11:25.774Z,98215.38
2023-01-19T04:13:54.207Z,98230.13
2023-01-19T04:16:23.831Z,98148.22
2023-01-19T04:18:52.824Z,98224.75
2023-01-19T04:21:20.864Z,98232.09
2023-01-19T04:23:50.266Z,98180.22
2023-01-19T04:26:19.082Z,98224.94
2023-01-19T04:28:47.807Z,98203.44
2023-01-19T04:31:16.070Z,98190.59
2023-01-19T04:33:44.075Z,98215.44
2023-01-19T04:36:11.955Z,98211.38
2023-01-19T04:38:40.067Z,98228.06
2023-01-19T04:41:07.955Z,98231.13
2023-01-19T04:43:35.926Z,98232.53
2023-01-19T04:46:04.315Z,98194.47
2023-01-19T04:48:32.700Z,98198.75
2023-01-19T04:51:00.730Z,98242.59
2023-01-19T04:53:28.738Z,98193.81
2023-01-19T04:55:57.305Z,98203.63
2023-01-19T04:58:25.793Z,98193.81
2023-01-19T05:00:53.818Z,98249.59
2023-01-19T05:03:23.599Z,98270.31
2023-01-19T05:05:53.406Z,98272.81
2023-01-19T05:08:21.600Z,98219.97
2023-01-19T05:10:50.766Z,98221.75
2023-01-19T05:13:18.640Z,98270.78
2023-01-19T05:15:46.821Z,98268.88
2023-01-19T05:18:14.888Z,98281.84
2023-01-19T05:20:43.103Z,98280.88
2023-01-19T05:23:11.428Z,98234.25
2023-01-19T05:25:39.481Z,98286.00
2023-01-19T05:28:07.820Z,98238.72
2023-01-19T05:30:36.339Z,98200.69
2023-01-19T05:33:04.375Z,98263.44
2023-01-19T05:35:36.161Z,98265.38
2023-01-19T05:38:05.309Z,98214.06
2023-01-19T05:40:33.533Z,98267.75
2023-01-19T05:43:05.289Z,98272.72
2023-01-19T05:45:35.156Z,98278.13
2023-01-19T05:48:03.449Z,98273.69
2023-01-19T05:50:32.365Z,98262.75
2023-01-19T05:53:02.479Z,98264.22
2023-01-19T05:55:30.853Z,98283.50
2023-01-19T05:57:59.372Z,98291.09
2023-01-19T06:00:28.045Z,98274.66
2023-01-19T06:02:56.767Z,98242.31
2023-01-19T06:05:24.631Z,98246.41
2023-01-19T06:07:53.069Z,98278.13
2023-01-19T06:10:21.314Z,98267.75
2023-01-19T06:12:49.719Z,98256.84
2023-01-19T06:15:18.265Z,98249.38
2023-01-19T06:17:46.610Z,98203.00
2023-01-19T06:20:15.600Z,98237.72
2023-01-19T06:22:44.433Z,98204.75
2023-01-19T06:25:13.164Z,98202.97
2023-01-19T06:27:45.521Z,98214.34
2023-01-19T06:30:14.434Z,98210.38
2023-01-19T06:32:42.547Z,98235.84
2023-01-19T06:35:12.361Z,98244.84
2023-01-19T06:37:41.172Z,98262.56
2023-01-19T06:40:10.387Z,98171.28
2023-01-19T06:42:39.632Z,98261.66
2023-01-19T06:45:10.249Z,98254.34
2023-01-19T06:47:38.173Z,98272.28
2023-01-19T06:50:07.523Z,98275.94
2023-01-19T06:52:42.377Z,98257.38
2023-01-19T06:55:12.312Z,98249.19
2023-01-19T06:57:40.406Z,98310.38
2023-01-19T07:00:09.389Z,98270.94
2023-01-19T07:02:41.091Z,98293.31
2023-01-19T07:05:10.431Z,98296.25
2023-01-19T07:07:42.141Z,98249.75
2023-01-19T07:10:12.224Z,98301.28
2023-01-19T07:12:40.165Z,98247.94
2023-01-19T07:15:09.522Z,98302.28
2023-01-19T07:17:37.635Z,98302.50
2023-01-19T07:20:06.835Z,98286.06
2023-01-19T07:22:35.005Z,98249.03
2023-01-19T07:25:03.775Z,98252.94
2023-01-19T07:27:31.918Z,98267.22
2023-01-19T07:30:01.227Z,98293.88
2023-01-19T07:32:30.049Z,98289.56
2023-01-19T07:34:57.979Z,98261.56
2023-01-19T07:37:26.012Z,98238.34
2023-01-19T07:39:53.956Z,98281.94
2023-01-19T07:42:22.175Z,98293.88
2023-01-19T07:44:50.137Z,98295.56
2023-01-19T07:47:18.614Z,98310.97
2023-01-19T07:49:47.097Z,98321.28
2023-01-19T07:52:15.688Z,98324.63
2023-01-19T07:54:43.864Z,98285.44
2023-01-19T07:57:12.027Z,98326.16
2023-01-19T07:59:40.025Z,98282.97
2023-01-19T08:02:11.355Z,98350.41
2023-01-19T08:04:40.460Z,98354.09
2023-01-19T08:07:09.810Z,98353.53
2023-01-19T08:09:38.409Z,98364.00
2023-01-19T08:12:07.086Z,98360.44
2023-01-19T08:14:35.223Z,98358.91
2023-01-19T08:17:04.237Z,98349.50
2023-01-19T08:19:32.539Z,98345.47
2023-01-19T08:22:01.738Z,98371.81
2023-01-19T08:24:31.712Z,98370.28
2023-01-19T08:27:02.619Z,98327.25
2023-01-19T08:29:32.345Z,98354.88
2023-01-19T08:32:03.231Z,98354.06
2023-01-19T08:34:33.840Z,98338.72
2023-01-19T08:46:17.635Z,98321.50
2023-01-19T08:48:48.270Z,98276.47
2023-01-19T08:51:20.322Z,98331.00
2023-01-19T08:53:48.643Z,98295.91
2023-01-19T08:56:18.538Z,98343.28
2023-01-19T08:58:59.435Z,98319.13
2023-01-19T09:01:37.637Z,98339.47
2023-01-19T09:04:06.800Z,98246.38
2023-01-19T09:06:35.083Z,98337.56
2023-01-19T09:09:04.058Z,98323.38
2023-01-19T09:11:33.801Z,98349.72
2023-01-19T09:14:02.439Z,98309.69
2023-01-19T09:16:31.175Z,98346.38
2023-01-19T09:19:00.271Z,98239.34
2023-01-19T09:21:29.067Z,98341.50
2023-01-19T09:23:58.023Z,98345.09
2023-01-19T09:26:27.083Z,98337.72
2023-01-19T09:28:55.394Z,98345.22
2023-01-19T09:31:24.345Z,98355.38
2023-01-19T09:33:54.643Z,98341.19
2023-01-19T09:36:24.401Z,98331.44
2023-01-19T09:38:53.022Z,98338.94
2023-01-19T09:41:22.941Z,98339.88
2023-01-19T09:44:00.671Z,98326.09
2023-01-19T09:46:43.624Z,98310.91
2023-01-19T09:49:27.008Z,98323.19
2023-01-19T09:51:55.465Z,98305.91
2023-01-19T09:54:58.766Z,98309.72
2023-01-19T09:57:28.008Z,98293.28
2023-01-19T09:59:59.995Z,98323.06
2023-01-19T10:02:57.326Z,98312.47
2023-01-19T10:05:45.801Z,98303.13
2023-01-19T10:08:28.896Z,98311.00
2023-01-19T10:10:59.501Z,98313.06
2023-01-19T10:13:50.168Z,98307.91
2023-01-19T10:16:59.460Z,98313.97
2023-01-19T10:19:41.219Z,98258.78
2023-01-19T10:22:25.902Z,98286.22
2023-01-19T10:25:08.816Z,98239.50
2023-01-19T10:27:39.698Z,98284.47
2023-01-19T10:30:16.761Z,98255.50
2023-01-19T10:32:45.754Z,98215.84
2023-01-19T10:35:23.982Z,98258.72
2023-01-19T10:38:01.698Z,98205.00
2023-01-19T10:41:05.443Z,98262.97
2023-01-19T10:43:41.711Z,98261.63
2023-01-19T10:46:44.120Z,98261.53
2023-01-19T10:49:31.631Z,98275.19
2023-01-19T10:52:01.136Z,98248.47
2023-01-19T10:54:32.821Z,98211.50
2023-01-19T10:57:08.164Z,98244.50
2023-01-19T10:59:51.276Z,98261.22
2023-01-19T11:02:28.147Z,98251.50
2023-01-19T11:05:23.096Z,98198.06
2023-01-19T11:07:52.324Z,98235.75
2023-01-19T11:10:29.915Z,98228.69
2023-01-19T11:13:14.419Z,98239.97
2023-01-19T11:16:09.973Z,98181.88
2023-01-19T11:18:41.861Z,98229.09
2023-01-19T11:21:19.843Z,98226.66
2023-01-19T11:23:52.537Z,98240.09
2023-01-19T11:26:48.993Z,98233.19
2023-01-19T11:29:27.870Z,98220.06
2023-01-19T11:32:10.795Z,98217.00
2023-01-19T11:34:39.918Z,98225.81
2023-01-19T11:37:20.317Z,98186.69
2023-01-19T11:39:59.005Z,98208.66
2023-01-19T11:42:33.547Z,98225.38
2023-01-19T11:45:17.912Z,98216.16
2023-01-19T11:47:57.060Z,98221.59
2023-01-19T11:50:44.270Z,98226.03
2023-01-19T11:53:25.959Z,98222.28
2023-01-19T11:56:14.002Z,98225.00
2023-01-19T11:58:48.561Z,98177.66
2023-01-19T12:01:26.389Z,98209.44
2023-01-19T12:04:14.427Z,98171.47
2023-01-19T12:06:53.657Z,98203.91
2023-01-19T12:09:39.711Z,98188.59
2023-01-19T12:12:31.422Z,98134.28
2023-01-19T12:15:36.075Z,98169.84
2023-01-19T12:18:08.287Z,98182.09
2023-01-19T12:20:41.074Z,98143.72
2023-01-19T12:23:18.922Z,98193.50
2023-01-19T12:26:24.622Z,98191.00
2023-01-19T12:28:59.268Z,98166.53
2023-01-19T12:31:28.619Z,98188.56
2023-01-19T12:34:20.124Z,98195.22
2023-01-19T12:36:49.820Z,98197.75
2023-01-19T12:39:22.147Z,98185.84
2023-01-19T12:42:21.275Z,98159.59
2023-01-19T12:44:52.532Z,98195.00
2023-01-19T12:47:24.642Z,98187.72
2023-01-19T12:50:06.769Z,98180.81
2023-01-19T12:52:41.806Z,98123.78
2023-01-19T12:55:16.989Z,98187.00
2023-01-19T12:57:56.655Z,98146.13
2023-01-19T13:00:24.731Z,98196.25
2023-01-19T13:03:20.139Z,98180.28
2023-01-19T13:05:55.935Z,98173.53
2023-01-19T13:08:49.554Z,98177.22
2023-01-19T13:11:20.329Z,98173.16
2023-01-19T13:14:00.223Z,98187.28
2023-01-19T13:16:28.837Z,98135.59
2023-01-19T13:19:05.519Z,98140.97
2023-01-19T13:21:44.765Z,98132.44
2023-01-19T13:24:15.917Z,98170.66
2023-01-19T13:27:00.337Z,98143.22
2023-01-19T13:29:31.811Z,98172.56
2023-01-19T13:32:05.368Z,98176.47
2023-01-19T13:35:07.171Z,98179.63
2023-01-19T13:37:42.498Z,98154.84
2023-01-19T13:40:30.553Z,98136.72
2023-01-19T13:42:59.855Z,98168.50
2023-01-19T13:45:38.170Z,98166.59
2023-01-19T13:48:14.954Z,98158.16
2023-01-19T13:50:56.381Z,98164.84
2023-01-19T13:53:25.223Z,98124.75
2023-01-19T13:56:23.327Z,98154.69
2023-01-19T13:59:10.327Z,98182.47
2023-01-19T14:01:46.089Z,98127.50
2023-01-19T14:04:33.939Z,98179.25
2023-01-19T14:07:06.280Z,98169.94
2023-01-19T14:09:34.844Z,98172.59
2023-01-19T14:12:17.584Z,98136.81
2023-01-19T14:14:50.113Z,98185.56
2023-01-19T14:17:28.418Z,98172.50
2023-01-19T14:20:01.465Z,98170.00
2023-01-19T14:22:44.110Z,98150.03
2023-01-19T14:25:36.753Z,98186.78
2023-01-19T14:28:40.730Z,98184.50
2023-01-19T14:31:28.434Z,98185.81
2023-01-19T14:33:59.037Z,98145.03
2023-01-19T14:36:40.062Z,98197.16
2023-01-19T14:39:22.420Z,98150.41
2023-01-19T14:41:53.231Z,98190.72
2023-01-19T14:44:40.218Z,98176.44
2023-01-19T14:47:27.963Z,98195.84
2023-01-19T14:50:02.913Z,98163.25
2023-01-19T14:52:42.758Z,98168.88
2023-01-19T14:55:49.589Z,98188.72
2023-01-19T14:58:21.551Z,98207.28
2023-01-19T15:00:50.335Z,98151.47
2023-01-19T15:03:19.811Z,98165.75
2023-01-19T15:05:50.176Z,98175.41
2023-01-19T15:08:33.817Z,98209.56
2023-01-19T15:11:22.323Z,98224.34
2023-01-19T15:13:50.984Z,98202.06
2023-01-19T15:16:20.366Z,98215.88
2023-01-19T15:18:49.168Z,98215.88
2023-01-19T15:21:23.886Z,98202.66
2023-01-19T15:23:52.434Z,98201.22
2023-01-19T15:26:25.711Z,98211.47
2023-01-19T15:28:56.695Z,98223.88
2023-01-19T15:31:26.808Z,98185.88
2023-01-19T15:33:55.198Z,98216.50
2023-01-19T15:36:25.785Z,98213.13
2023-01-19T15:38:53.770Z,98203.84
2023-01-19T15:41:30.274Z,98206.09
2023-01-19T15:43:59.187Z,98220.28
2023-01-19T15:46:28.521Z,98208.13
2023-01-19T15:48:57.325Z,98212.16
2023-01-19T15:51:27.355Z,98186.59
2023-01-19T15:53:56.130Z,98213.38
2023-01-19T15:56:30.442Z,98218.03
2023-01-19T15:58:59.985Z,98219.09
2023-01-19T16:01:34.365Z,98212.19
2023-01-19T16:04:08.145Z,98205.41
2023-01-19T16:06:36.434Z,98190.50
2023-01-19T16:09:04.550Z,98179.81
2023-01-19T16:11:35.381Z,98123.50
2023-01-19T16:14:03.650Z,98224.13
2023-01-19T16:16:31.977Z,98221.97
2023-01-19T16:19:00.398Z,98235.06
2023-01-19T16:21:29.213Z,98209.56
2023-01-19T16:23:57.513Z,98224.81
2023-01-19T16:26:35.624Z,98219.09
2023-01-19T16:29:10.114Z,98203.50
2023-01-19T16:31:41.469Z,98233.72
2023-01-19T16:34:11.124Z,98239.34
2023-01-19T16:36:42.336Z,98243.16
2023-01-19T16:39:18.474Z,98244.72
2023-01-19T16:41:46.877Z,98208.75
2023-01-19T16:44:17.128Z,98221.72
2023-01-19T16:46:46.931Z,98225.63
2023-01-19T16:49:24.311Z,98210.75
2023-01-19T16:51:54.958Z,98216.47
2023-01-19T16:54:27.993Z,98196.13
2023-01-19T16:56:57.786Z,98227.66
2023-01-19T16:59:27.308Z,98208.25
2023-01-19T17:01:57.414Z,98224.59
2023-01-19T17:04:27.446Z,98234.34
2023-01-19T17:06:56.250Z,98230.78
2023-01-19T17:09:24.761Z,98212.53
2023-01-19T17:11:52.840Z,98207.75
2023-01-19T17:14:21.145Z,98209.44
2023-01-19T17:16:50.223Z,98209.44
2023-01-19T17:19:21.103Z,98215.03
2023-01-19T17:21:49.985Z,98184.81
2023-01-19T17:24:18.793Z,98175.50
2023-01-19T17:26:49.046Z,98196.81
2023-01-19T17:29:18.116Z,98198.47
2023-01-19T17:31:47.158Z,98205.28
2023-01-19T17:34:15.751Z,98216.00
2023-01-19T17:36:44.073Z,98209.06
2023-01-19T17:39:15.114Z,98224.47
2023-01-19T17:41:43.740Z,98222.44
2023-01-19T17:44:12.083Z,98217.19
2023-01-19T17:46:40.461Z,98222.06
2023-01-19T17:49:09.381Z,98227.41
2023-01-19T17:51:37.965Z,98242.44
2023-01-19T17:54:09.038Z,98239.84
2023-01-19T17:56:38.902Z,98237.69
2023-01-19T17:59:08.399Z,98210.75
2023-01-19T18:01:40.984Z,98195.03
2023-01-19T18:04:10.870Z,98216.59
2023-01-19T18:06:40.626Z,98208.94
2023-01-19T18:09:09.728Z,98193.38
2023-01-19T18:11:38.784Z,98219.81
2023-01-19T18:14:08.264Z,98224.81
2023-01-19T18:16:37.452Z,98217.56
2023-01-19T18:19:06.806Z,98221.00
2023-01-19T18:21:35.749Z,98197.44
2023-01-19T18:24:06.614Z,98226.94
2023-01-19T18:26:36.587Z,98224.81
2023-01-19T18:29:05.164Z,98232.66
2023-01-19T18:31:33.724Z,98231.63
2023-01-19T18:34:02.114Z,98205.75
2023-01-19T18:36:34.435Z,98222.44
2023-01-19T18:39:04.103Z,98221.34
2023-01-19T18:41:34.597Z,98268.16
2023-01-19T18:44:03.091Z,98266.28
2023-01-19T18:46:33.303Z,98272.44
2023-01-19T18:49:02.170Z,98205.53
2023-01-19T18:51:31.048Z,98243.16
2023-01-19T18:54:00.137Z,98219.25
2023-01-19T18:56:29.003Z,98222.53
2023-01-19T18:58:57.733Z,98243.28
2023-01-19T19:01:32.828Z,98243.50
2023-01-19T19:04:02.819Z,98233.28
2023-01-19T19:06:31.855Z,98238.50
2023-01-19T19:09:00.575Z,98250.88
2023-01-19T19:11:29.106Z,98250.06
2023-01-19T19:14:03.399Z,98256.59
2023-01-19T19:16:35.178Z,98267.56
2023-01-19T19:19:05.485Z,98250.06
2023-01-19T19:21:33.988Z,98283.53
2023-01-19T19:24:02.656Z,98284.63
2023-01-19T19:26:31.626Z,98283.53
2023-01-19T19:29:02.037Z,98272.91
2023-01-19T19:31:31.129Z,98286.16
2023-01-19T19:34:00.203Z,98293.16
2023-01-19T19:36:30.077Z,98274.84
2023-01-19T19:39:00.126Z,98292.44
2023-01-19T19:41:29.851Z,98306.53
2023-01-19T19:43:59.640Z,98271.00
2023-01-19T19:46:29.716Z,98302.09
2023-01-19T19:48:58.305Z,98297.31
2023-01-19T19:51:28.716Z,98305.09
2023-01-19T19:54:00.673Z,98308.78
2023-01-19T19:56:31.941Z,98309.41
2023-01-19T19:59:01.543Z,98303.88
2023-01-19T20:01:33.710Z,98331.16
2023-01-19T20:04:12.126Z,98320.69
2023-01-19T20:06:45.033Z,98343.06
2023-01-19T20:09:16.231Z,98327.47
2023-01-19T20:11:46.939Z,98346.41
2023-01-19T20:14:16.841Z,98312.31
2023-01-19T20:16:45.335Z,98356.06
2023-01-19T20:19:13.825Z,98341.06
2023-01-19T20:21:44.052Z,98359.03
2023-01-19T20:24:19.904Z,98313.72
2023-01-19T20:26:52.806Z,98347.09
2023-01-19T20:29:21.603Z,98353.66
2023-01-19T20:31:55.640Z,98361.53
2023-01-19T20:34:32.111Z,98362.69
2023-01-19T20:37:03.006Z,98368.56
2023-01-19T20:39:33.769Z,98289.16
2023-01-19T20:42:02.545Z,98391.06
2023-01-19T20:44:30.980Z,98364.25
2023-01-19T20:46:59.468Z,98391.69
2023-01-19T20:49:29.079Z,98382.66
2023-01-19T20:51:58.429Z,98390.50
2023-01-19T20:54:30.368Z,98389.63
2023-01-19T20:57:00.539Z,98373.41
2023-01-19T20:59:33.733Z,98375.34
2023-01-19T21:02:02.317Z,98400.72
2023-01-19T21:04:30.723Z,98403.91
2023-01-19T21:06:59.602Z,98406.97
2023-01-19T21:09:29.737Z,98404.47
2023-01-19T21:11:58.576Z,98387.84
2023-01-19T21:14:30.221Z,98395.56
2023-01-19T21:16:58.838Z,98405.44
2023-01-19T21:19:27.464Z,98419.28
2023-01-19T21:21:55.927Z,98388.13
2023-01-19T21:24:24.828Z,98427.81
2023-01-19T21:26:53.137Z,98396.31
2023-01-19T21:29:21.965Z,98426.41
2023-01-19T21:31:50.774Z,98409.47
2023-01-19T21:34:21.028Z,98415.44
2023-01-19T21:36:49.725Z,98400.31
2023-01-19T21:39:18.495Z,98436.25
2023-01-19T21:41:47.342Z,98425.91
2023-01-19T21:44:16.108Z,98424.72
2023-01-19T21:46:45.453Z,98430.31
2023-01-19T21:49:19.503Z,98393.69
2023-01-19T21:51:53.323Z,98426.78
2023-01-19T21:54:21.955Z,98382.28
2023-01-19T21:56:50.641Z,98379.78
2023-01-19T21:59:20.385Z,98416.72
2023-01-19T22:01:49.414Z,98377.13
2023-01-19T22:04:18.037Z,98430.06
2023-01-19T22:06:47.524Z,98394.03
2023-01-19T22:09:16.122Z,98452.97
2023-01-19T22:11:45.216Z,98457.00
2023-01-19T22:14:19.272Z,98446.97
2023-01-19T22:16:48.529Z,98461.19
2023-01-19T22:19:23.400Z,98465.56
2023-01-19T22:21:51.652Z,98429.38
2023-01-19T22:24:20.370Z,98448.81
2023-01-19T22:26:48.489Z,98474.59
2023-01-19T22:29:20.178Z,98440.19
2023-01-19T22:31:50.154Z,98476.00
2023-01-19T22:34:20.387Z,98447.06
2023-01-19T22:36:49.775Z,98491.03
2023-01-19T22:39:18.164Z,98496.50
2023-01-19T22:41:47.443Z,98457.28
2023-01-19T22:44:23.441Z,98473.16
2023-01-19T22:46:55.798Z,98522.09
2023-01-19T22:49:24.345Z,98537.84
2023-01-19T22:51:54.444Z,98532.19
2023-01-19T22:54:23.521Z,98545.81
2023-01-19T22:56:51.875Z,98547.72
2023-01-19T22:59:21.116Z,98515.03
2023-01-19T23:01:51.742Z,98564.22
2023-01-19T23:04:20.683Z,98569.53
2023-01-19T23:06:51.106Z,98576.19
2023-01-19T23:09:19.940Z,98556.66
2023-01-19T23:11:50.879Z,98599.94
2023-01-19T23:14:22.202Z,98573.91
2023-01-19T23:16:50.812Z,98606.88
2023-01-19T23:19:19.916Z,98625.34
2023-01-19T23:21:52.825Z,98634.75
2023-01-19T23:24:20.976Z,98628.47
2023-01-19T23:26:52.310Z,98625.00
2023-01-19T23:29:20.769Z,98595.66
2023-01-19T23:31:50.238Z,98642.00
2023-01-19T23:34:18.569Z,98633.09
2023-01-19T23:36:48.720Z,98572.63
2023-01-19T23:39:21.183Z,98587.19
2023-01-19T23:41:49.984Z,98602.94
2023-01-19T23:44:18.448Z,98645.63
2023-01-19T23:46:46.639Z,98612.50
2023-01-19T23:49:15.638Z,98641.56
2023-01-19T23:51:43.873Z,98633.50
2023-01-19T23:54:12.420Z,98638.19
2023-01-19T23:56:42.756Z,98660.16
2023-01-19T23:59:14.263Z,98669.34
